Time;durP1;ratioP1;P1;durP2;ratioP2;P2;SDS_P1;SDS_P2;PMS_P1;PMS_P2;Temp;Humidity;BMP_temperature;BMP_pressure;BME280_temperature;BME280_humidity;BME280_pressure;Samples;Min_cycle;Max_cycle;Signal;HPM_P1;HPM_P2
2021/03/04 00:00:57;;;;;;;76.13;46.10;;;8.20;99.90;;;;;;4957767;28;20027;-80
2021/03/04 00:03:26;;;;;;;74.78;47.95;;;8.10;99.90;;;;;;4974296;28;20090;-80
2021/03/04 00:05:52;;;;;;;73.03;47.38;;;;;;;;;;4984658;28;20098;-81
2021/03/04 00:08:24;;;;;;;76.85;47.08;;;8.10;99.90;;;;;;4973590;28;20056;-80
2021/03/04 00:10:49;;;;;;;79.35;47.20;;;8.10;99.90;;;;;;4966956;28;20034;-80
2021/03/04 00:13:16;;;;;;;78.57;47.22;;;;;;;;;;4977297;28;20047;-79
2021/03/04 00:15:42;;;;;;;75.97;46.28;;;;;;;;;;4975436;28;20031;-80
2021/03/04 00:18:08;;;;;;;75.60;46.45;;;;;;;;;;4970508;28;20043;-80
2021/03/04 00:20:34;;;;;;;79.15;48.28;;;8.00;99.90;;;;;;4968230;28;20031;-80
2021/03/04 00:23:00;;;;;;;73.40;43.80;;;9.70;99.90;;;;;;4988114;28;20391;-81
2021/03/04 00:25:35;;;;;;;74.50;46.35;;;7.90;99.90;;;;;;4984824;28;20057;-80
2021/03/04 00:28:01;;;;;;;78.53;48.75;;;7.80;99.90;;;;;;4978368;28;20066;-80
2021/03/04 00:30:27;;;;;;;84.00;49.85;;;7.70;99.90;;;;;;4986257;28;20034;-80
2021/03/04 00:32:53;;;;;;;77.07;48.05;;;7.60;99.90;;;;;;4986827;28;20382;-82
2021/03/04 00:35:19;;;;;;;80.55;50.63;;;7.60;99.90;;;;;;4974476;28;20030;-81
2021/03/04 00:37:45;;;;;;;79.53;50.53;;;7.60;99.90;;;;;;4976465;28;20043;-81
2021/03/04 00:40:13;;;;;;;86.97;50.67;;;7.50;99.90;;;;;;4976791;28;20079;-79
2021/03/04 00:42:39;;;;;;;79.03;47.97;;;7.50;99.90;;;;;;4955903;28;20038;-80
2021/03/04 00:45:09;;;;;;;79.05;48.00;;;7.50;99.90;;;;;;4969055;28;20029;-79
2021/03/04 00:47:35;;;;;;;81.65;48.85;;;7.40;99.90;;;;;;4974690;28;20045;-80
2021/03/04 00:50:06;;;;;;;76.53;47.78;;;7.40;99.90;;;;;;4963365;28;20023;-80
2021/03/04 00:52:31;;;;;;;79.10;48.30;;;7.40;99.90;;;;;;4973530;28;20027;-79
2021/03/04 00:54:57;;;;;;;76.75;46.97;;;7.40;99.90;;;;;;4976535;28;20077;-80
2021/03/04 00:57:23;;;;;;;77.03;49.42;;;7.30;99.90;;;;;;4984613;28;20442;-80
2021/03/04 00:59:48;;;;;;;77.38;46.08;;;7.30;99.90;;;;;;4965629;28;20031;-80
2021/03/04 01:02:14;;;;;;;77.28;45.00;;;7.30;99.90;;;;;;4987664;28;20038;-80
2021/03/04 01:04:40;;;;;;;72.07;43.40;;;7.30;99.90;;;;;;4977020;28;20090;-80
2021/03/04 01:07:05;;;;;;;73.57;45.33;;;7.30;99.90;;;;;;4977681;28;20032;-80
2021/03/04 01:09:35;;;;;;;73.75;44.33;;;7.20;99.90;;;;;;4980153;28;20022;-80
2021/03/04 01:12:00;;;;;;;77.82;46.17;;;7.20;99.90;;;;;;4964196;28;20073;-79
2021/03/04 01:14:26;;;;;;;76.05;46.42;;;7.10;99.90;;;;;;4980278;28;20034;-80
2021/03/04 01:16:52;;;;;;;75.15;45.28;;;7.10;99.90;;;;;;4951890;28;20024;-80
2021/03/04 01:19:17;;;;;;;80.60;48.22;;;7.10;99.90;;;;;;4977162;28;20085;-80
2021/03/04 01:21:43;;;;;;;78.78;45.97;;;7.00;99.90;;;;;;4973052;28;20023;-81
2021/03/04 01:24:09;;;;;;;78.50;46.47;;;7.10;99.90;;;;;;4965466;28;20054;-78
2021/03/04 01:26:35;;;;;;;83.00;45.88;;;6.90;99.90;;;;;;4960814;28;20046;-80
2021/03/04 01:29:01;;;;;;;77.95;46.90;;;6.90;99.90;;;;;;4970342;28;20034;-80
2021/03/04 01:31:27;;;;;;;77.70;46.40;;;6.90;99.90;;;;;;4976779;28;20031;-79
2021/03/04 01:33:52;;;;;;;77.60;46.58;;;6.90;99.90;;;;;;4979371;28;20038;-80
2021/03/04 01:36:18;;;;;;;74.10;46.03;;;6.90;99.90;;;;;;4972341;28;20027;-80
2021/03/04 01:38:43;;;;;;;76.10;46.15;;;6.80;99.90;;;;;;4978997;28;20035;-80
2021/03/04 01:41:09;;;;;;;79.40;46.80;;;6.80;99.90;;;;;;4960239;28;20032;-80
2021/03/04 01:43:35;;;;;;;76.57;45.65;;;6.80;99.90;;;;;;4957788;29;20163;-80
2021/03/04 01:46:00;;;;;;;80.38;47.95;;;6.70;99.90;;;;;;4975562;28;20085;-79
2021/03/04 01:48:26;;;;;;;79.80;47.47;;;6.70;99.90;;;;;;4959629;28;20030;-79
2021/03/04 01:50:51;;;;;;;79.60;49.83;;;6.70;99.90;;;;;;4978384;28;20082;-80
2021/03/04 01:53:17;;;;;;;78.28;48.33;;;6.70;99.90;;;;;;4982295;28;20109;-80
2021/03/04 01:55:44;;;;;;;83.22;49.65;;;6.70;99.90;;;;;;4978359;28;20019;-80
2021/03/04 01:58:11;;;;;;;86.13;50.88;;;6.60;99.90;;;;;;4973661;28;20043;-79
2021/03/04 02:03:59;;;;;;;78.00;49.30;;;6.60;99.90;;;;;;4977810;28;20062;-81
2021/03/04 02:06:35;;;;;;;85.47;52.70;;;6.60;99.90;;;;;;4974674;28;20039;-81
2021/03/04 02:09:04;;;;;;;87.50;53.38;;;6.60;99.90;;;;;;4981519;28;20027;-80
2021/03/04 02:11:37;;;;;;;91.45;57.80;;;6.50;99.90;;;;;;4978999;28;20031;-80
2021/03/04 02:14:16;;;;;;;93.28;54.80;;;6.50;99.90;;;;;;4984663;28;20019;-80
2021/03/04 02:16:50;;;;;;;89.03;52.40;;;6.50;99.90;;;;;;4980171;28;20051;-80
2021/03/04 02:19:45;;;;;;;88.97;54.92;;;6.50;99.90;;;;;;4970988;28;20437;-80
2021/03/04 02:22:39;;;;;;;84.85;52.25;;;6.40;99.90;;;;;;4976361;28;20034;-80
2021/03/04 02:25:13;;;;;;;95.15;54.67;;;6.40;99.90;;;;;;4980472;28;20529;-79
2021/03/04 02:27:40;;;;;;;100.13;58.17;;;6.40;99.90;;;;;;4956511;29;20024;-80
2021/03/04 02:30:11;;;;;;;90.10;55.95;;;6.40;99.90;;;;;;4953766;29;20063;-79
2021/03/04 02:32:59;;;;;;;91.20;56.65;;;6.40;99.90;;;;;;4957207;29;20016;-80
2021/03/04 02:35:31;;;;;;;91.57;54.67;;;6.30;99.90;;;;;;4957031;29;20122;-81
2021/03/04 02:38:01;;;;;;;90.32;55.13;;;6.40;99.90;;;;;;4951110;29;20035;-80
2021/03/04 02:40:31;;;;;;;93.40;56.28;;;6.40;99.90;;;;;;4958047;29;20032;-80
2021/03/04 02:42:58;;;;;;;89.47;55.70;;;6.30;99.90;;;;;;4946100;29;20038;-80
2021/03/04 02:45:26;;;;;;;91.80;56.25;;;6.30;99.90;;;;;;4956596;28;20027;-81
2021/03/04 02:47:52;;;;;;;97.28;58.70;;;6.30;99.90;;;;;;4960282;29;20056;-81
2021/03/04 02:50:20;;;;;;;100.22;59.63;;;6.30;99.90;;;;;;4962815;29;20047;-80
2021/03/04 02:52:47;;;;;;;96.03;58.30;;;6.20;99.90;;;;;;4962286;28;20035;-80
2021/03/04 02:55:14;;;;;;;94.78;56.83;;;6.20;99.90;;;;;;4948718;29;20023;-80
2021/03/04 02:57:42;;;;;;;99.00;57.40;;;6.20;99.90;;;;;;4959651;28;20455;-80
2021/03/04 03:00:13;;;;;;;95.57;56.67;;;6.20;99.90;;;;;;4953129;29;20032;-80
2021/03/04 03:02:41;;;;;;;96.25;58.85;;;6.20;99.90;;;;;;4954014;28;20478;-79
2021/03/04 03:05:09;;;;;;;95.88;60.20;;;6.30;99.90;;;;;;4963544;29;20023;-80
2021/03/04 03:07:37;;;;;;;97.43;60.30;;;6.30;99.90;;;;;;4959251;29;20078;-80
2021/03/04 03:10:05;;;;;;;98.50;58.13;;;6.40;99.90;;;;;;4959486;29;20019;-80
2021/03/04 03:12:32;;;;;;;101.07;59.25;;;6.40;99.90;;;;;;4958638;28;20023;-81
2021/03/04 03:15:00;;;;;;;99.85;58.22;;;6.40;99.90;;;;;;4953580;29;20023;-80
2021/03/04 03:17:27;;;;;;;102.55;59.42;;;6.50;99.90;;;;;;4959382;28;20027;-80
2021/03/04 03:19:53;;;;;;;95.80;59.33;;;6.50;99.90;;;;;;4941346;28;20468;-80
2021/03/04 03:22:21;;;;;;;99.90;59.95;;;6.50;99.90;;;;;;4954139;29;20059;-80
2021/03/04 03:24:47;;;;;;;102.80;61.58;;;6.40;99.90;;;;;;4968263;28;20050;-80
2021/03/04 03:27:12;;;;;;;96.97;57.50;;;6.40;99.90;;;;;;4979388;28;20038;-79
2021/03/04 03:29:38;;;;;;;102.38;60.70;;;6.50;99.90;;;;;;4958376;28;20018;-80
2021/03/04 03:32:06;;;;;;;97.70;59.10;;;6.40;99.90;;;;;;4980623;28;20035;-80
2021/03/04 03:34:32;;;;;;;103.65;61.10;;;6.30;99.90;;;;;;4958559;28;20023;-79
2021/03/04 03:36:58;;;;;;;105.60;62.70;;;6.30;99.90;;;;;;4976511;28;20030;-80
2021/03/04 03:39:24;;;;;;;99.68;59.03;;;6.40;99.90;;;;;;4973216;28;20027;-80
2021/03/04 03:41:50;;;;;;;97.90;60.63;;;6.40;99.90;;;;;;4984814;28;20038;-79
2021/03/04 03:44:18;;;;;;;98.15;57.58;;;6.40;99.90;;;;;;4962643;29;20031;-80
2021/03/04 03:46:44;;;;;;;101.70;60.38;;;6.40;99.90;;;;;;4984437;28;20135;-79
2021/03/04 03:49:11;;;;;;;96.28;59.75;;;6.30;99.90;;;;;;4980795;28;20038;-80
2021/03/04 03:51:37;;;;;;;96.90;57.15;;;6.30;99.90;;;;;;4981500;28;20054;-80
2021/03/04 03:54:05;;;;;;;97.32;57.53;;;6.30;99.90;;;;;;4960698;28;20028;-80
2021/03/04 03:56:31;;;;;;;87.50;53.53;;;6.30;99.90;;;;;;4981637;28;20035;-80
2021/03/04 03:59:01;;;;;;;86.68;53.08;;;6.20;99.90;;;;;;4984493;28;20046;-79
2021/03/04 04:01:28;;;;;;;80.13;46.92;;;6.30;99.90;;;;;;4987091;28;20030;-79
2021/03/04 04:03:57;;;;;;;86.25;49.35;;;6.30;99.90;;;;;;4974077;28;20031;-82
2021/03/04 04:06:25;;;;;;;81.15;46.92;;;6.30;99.90;;;;;;4988339;28;20038;-81
2021/03/04 04:08:53;;;;;;;91.07;51.75;;;6.20;99.90;;;;;;4961995;28;20039;-81
2021/03/04 04:11:27;;;;;;;94.15;52.20;;;6.00;99.90;;;;;;4960991;28;20026;-79
2021/03/04 04:14:02;;;;;;;91.15;54.80;;;6.10;99.90;;;;;;4970593;28;20046;-81
2021/03/04 04:16:31;;;;;;;100.50;55.92;;;6.00;99.90;;;;;;4957765;28;20082;-81
2021/03/04 04:18:57;;;;;;;94.53;55.20;;;5.90;99.90;;;;;;4973979;28;20094;-80
2021/03/04 04:21:24;;;;;;;86.50;54.97;;;6.00;99.90;;;;;;4974799;28;20031;-79
2021/03/04 04:23:50;;;;;;;88.07;50.60;;;6.10;99.90;;;;;;4971382;28;20059;-80
2021/03/04 04:26:16;;;;;;;84.32;52.17;;;6.00;99.90;;;;;;4970956;28;20043;-80
2021/03/04 04:28:43;;;;;;;84.82;48.83;;;6.00;99.90;;;;;;4972787;28;20110;-80
2021/03/04 04:31:08;;;;;;;87.97;48.60;;;6.10;99.90;;;;;;4971912;28;20039;-81
2021/03/04 04:33:34;;;;;;;84.15;50.35;;;6.10;99.90;;;;;;4942445;28;20027;-79
2021/03/04 04:35:59;;;;;;;88.00;50.42;;;6.10;99.90;;;;;;4972115;28;20483;-79
2021/03/04 04:38:25;;;;;;;84.95;48.00;;;6.00;99.90;;;;;;4971423;28;20097;-80
2021/03/04 04:40:51;;;;;;;78.80;44.92;;;5.90;99.90;;;;;;4978476;28;20063;-80
2021/03/04 04:43:17;;;;;;;72.95;43.28;;;5.90;99.90;;;;;;4974880;28;20049;-80
2021/03/04 04:45:43;;;;;;;76.80;43.60;;;6.00;99.90;;;;;;4977690;28;20387;-79
2021/03/04 04:48:10;;;;;;;74.50;42.05;;;6.00;99.90;;;;;;4977386;28;20057;-80
2021/03/04 04:50:35;;;;;;;74.10;40.63;;;5.90;99.90;;;;;;4973033;28;20369;-80
2021/03/04 04:53:01;;;;;;;79.30;44.00;;;5.90;99.90;;;;;;4971287;28;20494;-79
2021/03/04 04:55:26;;;;;;;68.13;39.58;;;5.70;99.90;;;;;;4975799;28;20359;-80
2021/03/04 04:57:52;;;;;;;72.10;38.97;;;5.60;99.90;;;;;;4952107;28;20051;-80
2021/03/04 05:00:19;;;;;;;81.10;42.97;;;5.60;99.90;;;;;;4956829;28;20023;-79
2021/03/04 05:02:44;;;;;;;80.78;42.60;;;5.60;99.90;;;;;;4974073;28;20507;-80
2021/03/04 05:05:10;;;;;;;77.55;41.65;;;5.40;99.90;;;;;;4964944;28;20032;-79
2021/03/04 05:07:36;;;;;;;81.65;42.92;;;5.50;99.90;;;;;;4980147;28;20054;-80
2021/03/04 05:10:11;;;;;;;83.95;43.53;;;5.50;99.90;;;;;;4983319;28;20031;-81
2021/03/04 05:12:37;;;;;;;83.07;43.03;;;5.50;99.90;;;;;;4980852;28;20074;-80
2021/03/04 05:15:05;;;;;;;83.00;43.13;;;5.60;99.90;;;;;;4981877;28;20023;-80
2021/03/04 05:17:32;;;;;;;78.38;43.42;;;5.60;99.90;;;;;;4976416;28;20475;-81
2021/03/04 05:19:57;;;;;;;80.25;41.38;;;5.60;99.90;;;;;;4985339;28;20054;-81
2021/03/04 05:22:26;;;;;;;84.30;41.22;;;5.60;99.90;;;;;;4975401;28;20501;-80
2021/03/04 05:24:51;;;;;;;81.13;40.83;;;5.60;99.90;;;;;;4959790;29;20584;-81
2021/03/04 05:27:17;;;;;;;81.28;41.88;;;5.50;99.90;;;;;;4975730;28;20063;-79
2021/03/04 05:29:42;;;;;;;80.03;40.40;;;5.50;99.90;;;;;;4979397;28;20066;-80
2021/03/04 05:32:08;;;;;;;80.43;40.65;;;5.60;99.90;;;;;;4975583;28;20062;-81
2021/03/04 05:34:40;;;;;;;81.88;39.97;;;5.60;99.90;;;;;;4982587;28;20138;-82
2021/03/04 05:37:06;;;;;;;;;;;5.60;99.90;;;;;;4977081;28;20023;-81
2021/03/04 05:39:31;;;;;;;72.65;38.35;;;5.50;99.90;;;;;;4983969;28;20397;-80
2021/03/04 05:41:58;;;;;;;78.05;37.25;;;5.60;99.90;;;;;;4981928;28;20399;-80
2021/03/04 05:44:24;;;;;;;81.20;39.97;;;5.90;99.90;;;;;;4957420;28;20026;-80
2021/03/04 05:46:50;;;;;;;76.60;40.45;;;5.40;99.90;;;;;;4977360;28;20027;-81
2021/03/04 05:49:18;;;;;;;81.57;40.85;;;4.80;99.90;;;;;;4986601;28;20038;-81
2021/03/04 05:51:45;;;;;;;82.07;38.50;;;5.30;99.90;;;;;;4974994;28;20091;-80
2021/03/04 05:54:16;;;;;;;81.32;38.05;;;5.30;99.90;;;;;;4984921;28;20027;-80
2021/03/04 05:56:43;;;;;;;83.55;39.30;;;5.10;99.90;;;;;;4989216;28;20034;-81
2021/03/04 05:59:09;;;;;;;74.30;38.88;;;;;;;;;;4987574;28;20039;-80
2021/03/04 06:01:35;;;;;;;66.97;36.13;;;5.10;99.90;;;;;;4962313;28;20397;-81
2021/03/04 06:04:01;;;;;;;67.78;33.90;;;6.90;99.90;;;;;;4982865;28;20038;-80
2021/03/04 06:06:28;;;;;;;68.68;32.42;;;;;;;;;;4976609;28;20035;-80
2021/03/04 06:08:55;;;;;;;69.90;32.38;;;4.90;99.90;;;;;;4975020;28;20030;-80
2021/03/04 06:11:23;;;;;;;59.05;30.13;;;3.40;99.90;;;;;;4984642;28;20037;-80
2021/03/04 06:13:52;;;;;;;64.97;32.05;;;4.90;99.90;;;;;;4971398;28;20061;-80
2021/03/04 06:16:18;;;;;;;64.40;32.28;;;;;;;;;;4972741;28;20027;-80
2021/03/04 06:18:48;;;;;;;64.18;33.55;;;;;;;;;;4963803;28;20126;-80
2021/03/04 06:21:27;;;;;;;66.22;31.55;;;4.90;99.90;;;;;;4978627;28;20035;-81
2021/03/04 06:23:58;;;;;;;65.00;31.95;;;5.10;99.90;;;;;;4980395;28;20027;-82
2021/03/04 06:26:25;;;;;;;66.70;32.67;;;5.00;99.90;;;;;;4979260;28;20083;-81
2021/03/04 06:28:55;;;;;;;65.38;33.30;;;5.20;99.90;;;;;;4976066;28;20027;-82
2021/03/04 06:31:21;;;;;;;73.28;34.55;;;;;;;;;;4972329;28;20073;-81
2021/03/04 06:33:47;;;;;;;64.75;32.45;;;5.20;99.90;;;;;;4983613;28;20041;-82
2021/03/04 06:36:14;;;;;;;73.35;33.75;;;5.30;99.90;;;;;;4981750;28;20031;-80
2021/03/04 06:38:41;;;;;;;65.93;35.38;;;;;;;;;;4950060;28;20090;-81
2021/03/04 06:41:27;;;;;;;74.03;35.45;;;5.30;99.90;;;;;;4973541;28;20090;-81
2021/03/04 06:44:00;;;;;;;69.50;35.05;;;7.10;99.90;;;;;;4975677;28;20062;-81
2021/03/04 06:46:26;;;;;;;73.88;36.47;;;;;;;;;;4976905;28;20027;-80
2021/03/04 06:48:52;;;;;;;71.45;33.90;;;5.00;99.90;;;;;;4972578;28;20027;-81
2021/03/04 06:51:18;;;;;;;68.22;32.30;;;;;;;;;;4974542;28;20027;-81
2021/03/04 06:53:52;;;;;;;67.82;32.25;;;5.10;99.90;;;;;;4972736;28;20031;-82
2021/03/04 06:56:30;;;;;;;70.78;35.45;;;5.20;99.90;;;;;;4955866;28;20125;-80
2021/03/04 06:59:00;;;;;;;68.80;35.08;;;5.20;99.90;;;;;;4974193;28;20046;-81
2021/03/04 07:01:26;;;;;;;77.45;38.45;;;;;;;;;;4980631;28;20031;-80
2021/03/04 07:03:54;;;;;;;73.97;39.28;;;5.20;99.90;;;;;;4981455;28;20038;-82
2021/03/04 07:06:25;;;;;;;75.70;37.75;;;4.90;99.90;;;;;;4966030;28;20027;-81
2021/03/04 07:08:52;;;;;;;73.05;36.05;;;5.00;99.90;;;;;;4981252;28;20165;-81
2021/03/04 07:11:26;;;;;;;77.47;36.20;;;5.00;99.90;;;;;;4980703;28;20098;-81
2021/03/04 07:13:52;;;;;;;68.80;33.78;;;5.00;99.90;;;;;;4977726;28;20045;-82
2021/03/04 07:16:28;;;;;;;64.60;30.98;;;5.10;99.90;;;;;;4979657;28;20027;-82
2021/03/04 07:18:58;;;;;;;64.32;31.77;;;5.00;99.90;;;;;;4974352;28;20043;-80
2021/03/04 07:21:28;;;;;;;66.32;36.60;;;5.00;99.90;;;;;;4974774;28;20030;-82
2021/03/04 07:23:54;;;;;;;71.40;34.50;;;8.30;99.90;;;;;;4971973;28;20024;-80
2021/03/04 07:26:20;;;;;;;64.28;32.58;;;5.00;99.90;;;;;;4944786;29;20050;-80
2021/03/04 07:28:47;;;;;;;67.70;32.22;;;5.00;99.90;;;;;;4963062;28;20055;-80
2021/03/04 07:31:14;;;;;;;69.88;32.65;;;5.10;99.90;;;;;;4964583;29;20051;-80
2021/03/04 07:33:45;;;;;;;69.22;32.65;;;5.10;99.90;;;;;;4947996;29;20480;-81
2021/03/04 07:36:12;;;;;;;63.70;33.53;;;5.00;99.90;;;;;;4963387;29;20039;-81
2021/03/04 07:38:39;;;;;;;72.13;34.80;;;;;;;;;;4962716;28;20070;-82
2021/03/04 07:41:11;;;;;;;64.55;32.53;;;5.20;99.90;;;;;;4972511;28;20039;-81
2021/03/04 07:43:50;;;;;;;75.28;33.47;;;5.00;99.90;;;;;;4958896;29;20034;-81
2021/03/04 07:46:32;;;;;;;77.53;36.17;;;4.30;99.90;;;;;;4939898;29;20027;-80
2021/03/04 07:48:59;;;;;;;74.28;36.72;;;5.00;99.90;;;;;;4956373;28;20030;-80
2021/03/04 07:51:25;;;;;;;69.18;32.60;;;6.90;99.90;;;;;;4958816;29;20036;-80
2021/03/04 07:53:53;;;;;;;68.95;33.00;;;5.00;99.90;;;;;;4957116;29;20046;-81
2021/03/04 07:56:26;;;;;;;63.45;32.65;;;5.00;99.90;;;;;;4955088;29;20046;-80
2021/03/04 07:58:53;;;;;;;67.05;33.88;;;5.00;99.90;;;;;;4956646;28;20040;-79
2021/03/04 08:01:19;;;;;;;61.65;31.98;;;5.20;99.90;;;;;;4957524;29;20041;-80
2021/03/04 08:03:52;;;;;;;69.43;33.90;;;5.20;99.90;;;;;;4965545;29;20038;-80
2021/03/04 08:06:18;;;;;;;56.88;27.77;;;5.00;99.90;;;;;;4936159;29;20027;-80
2021/03/04 08:08:46;;;;;;;55.15;27.45;;;5.10;99.90;;;;;;4941341;29;20432;-80
2021/03/04 08:11:31;;;;;;;52.42;27.08;;;5.10;99.90;;;;;;4968736;28;20031;-81
2021/03/04 08:13:57;;;;;;;55.45;27.58;;;;;;;;;;4961196;29;20031;-81
2021/03/04 08:16:23;;;;;;;54.50;26.50;;;5.10;99.90;;;;;;4960694;29;20361;-81
2021/03/04 08:18:58;;;;;;;50.13;26.27;;;5.70;99.90;;;;;;4960186;28;20043;-79
2021/03/04 08:21:25;;;;;;;50.25;25.73;;;5.00;99.90;;;;;;4948939;29;20055;-80
2021/03/04 08:23:52;;;;;;;55.72;25.38;;;5.10;99.90;;;;;;4962796;29;20030;-81
2021/03/04 08:26:26;;;;;;;57.35;25.35;;;5.00;99.90;;;;;;4941346;29;20050;-80
2021/03/04 08:29:06;;;;;;;45.45;23.30;;;5.20;99.90;;;;;;4956670;29;20034;-82
2021/03/04 08:31:33;;;;;;;46.53;24.75;;;5.40;99.90;;;;;;4967933;29;20042;-82
2021/03/04 08:33:59;;;;;;;50.70;24.35;;;5.20;99.90;;;;;;4968763;29;20023;-81
2021/03/04 08:36:26;;;;;;;52.35;27.23;;;;;;;;;;4970717;29;20031;-80
2021/03/04 08:38:53;;;;;;;56.63;26.05;;;;;;;;;;4961187;29;20039;-82
2021/03/04 08:41:21;;;;;;;48.10;24.50;;;5.10;99.90;;;;;;4968281;29;20467;-83
2021/03/04 08:43:47;;;;;;;54.67;25.02;;;;;;;;;;4954243;29;20099;-82
2021/03/04 08:46:14;;;;;;;51.30;25.60;;;;;;;;;;4955373;29;20114;-82
2021/03/04 08:48:46;;;;;;;56.67;25.13;;;5.00;99.90;;;;;;4964996;29;20034;-82
2021/03/04 08:51:14;;;;;;;49.63;25.77;;;5.00;99.90;;;;;;4966694;29;20034;-82
2021/03/04 08:53:39;;;;;;;50.97;24.10;;;5.10;99.90;;;;;;4960334;29;20024;-83
2021/03/04 08:56:08;;;;;;;46.00;23.25;;;5.10;99.90;;;;;;4968791;29;20024;-81
2021/03/04 08:58:45;;;;;;;46.28;23.90;;;5.20;99.90;;;;;;4963012;29;20300;-81
2021/03/04 09:01:12;;;;;;;45.03;23.00;;;6.10;99.90;;;;;;4951766;29;20738;-81
2021/03/04 09:03:40;;;;;;;42.72;22.10;;;5.40;99.90;;;;;;4955441;29;20035;-81
2021/03/04 09:06:18;;;;;;;48.00;22.35;;;5.40;99.90;;;;;;4953062;29;20042;-80
2021/03/04 09:08:48;;;;;;;41.40;21.33;;;5.20;99.90;;;;;;4950571;29;20051;-81
2021/03/04 09:11:34;;;;;;;43.17;20.35;;;5.30;99.90;;;;;;4934478;29;20110;-80
2021/03/04 09:14:09;;;;;;;46.95;22.20;;;6.50;99.90;;;;;;4953245;29;20038;-80
2021/03/04 09:16:45;;;;;;;57.05;26.40;;;5.30;99.90;;;;;;4952651;29;20039;-81
2021/03/04 09:19:22;;;;;;;44.90;24.42;;;5.30;99.90;;;;;;4943319;29;20070;-80
2021/03/04 09:21:48;;;;;;;47.17;24.33;;;;;;;;;;4934710;29;20037;-81
2021/03/04 09:24:18;;;;;;;53.90;24.85;;;;;;;;;;4951642;29;20059;-82
2021/03/04 09:26:44;;;;;;;41.08;22.98;;;;;;;;;;4942006;29;20024;-80
2021/03/04 09:29:10;;;;;;;49.88;24.02;;;;;;;;;;4955576;29;20064;-79
2021/03/04 09:31:37;;;;;;;46.20;23.05;;;;;;;;;;4958724;29;20031;-79
2021/03/04 09:34:04;;;;;;;44.00;21.00;;;5.50;99.90;;;;;;4962331;29;20028;-81
2021/03/04 09:36:30;;;;;;;39.97;21.02;;;5.60;99.90;;;;;;4960918;29;20028;-80
2021/03/04 09:38:57;;;;;;;35.95;18.80;;;5.40;99.90;;;;;;4953110;29;20047;-79
2021/03/04 09:41:24;;;;;;;34.55;18.92;;;5.20;99.90;;;;;;4929082;29;20035;-79
2021/03/04 09:43:50;;;;;;;36.38;19.90;;;;;;;;;;4943208;29;20028;-77
2021/03/04 09:46:35;;;;;;;41.50;19.70;;;5.40;99.90;;;;;;4923795;29;20422;-78
2021/03/04 09:49:17;;;;;;;39.53;21.67;;;5.20;99.90;;;;;;4941336;29;20059;-77
2021/03/04 09:51:45;;;;;;;36.53;19.45;;;5.10;99.90;;;;;;4946236;29;20528;-79
2021/03/04 09:54:22;;;;;;;35.75;20.80;;;5.10;99.90;;;;;;4923484;29;20051;-77
2021/03/04 09:56:47;;;;;;;35.65;19.88;;;5.20;99.90;;;;;;4948016;29;20031;-77
2021/03/04 09:59:19;;;;;;;37.10;19.17;;;5.20;99.90;;;;;;4950379;29;20024;-76
2021/03/04 10:01:45;;;;;;;47.33;20.65;;;5.30;99.90;;;;;;4949247;29;20039;-76
2021/03/04 10:04:10;;;;;;;38.42;20.80;;;5.10;99.90;;;;;;4945505;29;20043;-75
2021/03/04 10:06:38;;;;;;;36.67;18.15;;;5.20;99.90;;;;;;4945775;29;20036;-75
2021/03/04 10:09:07;;;;;;;32.83;17.27;;;5.10;99.90;;;;;;4926359;29;20181;-77
2021/03/04 10:11:38;;;;;;;37.92;17.92;;;5.10;99.90;;;;;;4954669;28;20496;-76
2021/03/04 10:14:11;;;;;;;32.23;16.67;;;5.20;99.90;;;;;;4944987;29;20149;-76
2021/03/04 10:16:37;;;;;;;48.95;23.48;;;5.30;99.90;;;;;;4943629;29;20094;-78
2021/03/04 10:19:05;;;;;;;35.03;18.75;;;5.30;99.90;;;;;;4945142;29;20106;-76
2021/03/04 10:21:31;;;;;;;35.83;18.40;;;5.20;99.90;;;;;;4930080;29;20094;-77
2021/03/04 10:23:58;;;;;;;36.17;18.80;;;5.40;99.90;;;;;;4945431;29;20139;-76
2021/03/04 10:26:23;;;;;;;32.47;18.00;;;5.30;99.90;;;;;;4943421;28;20043;-75
2021/03/04 10:28:49;;;;;;;36.03;18.02;;;5.30;99.90;;;;;;4942388;29;20502;-75
2021/03/04 10:31:16;;;;;;;36.08;18.70;;;5.20;99.90;;;;;;4941826;29;20039;-76
2021/03/04 10:33:45;;;;;;;36.60;18.08;;;5.00;99.90;;;;;;4943107;29;20047;-76
2021/03/04 10:36:11;;;;;;;39.50;21.05;;;;;;;;;;4937721;29;20049;-78
2021/03/04 10:38:37;;;;;;;37.80;19.73;;;;;;;;;;4938872;29;20178;-77
2021/03/04 10:41:07;;;;;;;38.83;21.17;;;;;;;;;;4943404;29;20098;-76
2021/03/04 10:43:33;;;;;;;42.75;23.58;;;;;;;;;;4942791;29;20031;-75
2021/03/04 10:45:59;;;;;;;42.17;21.80;;;;;;;;;;4940839;29;20031;-76
2021/03/04 10:48:27;;;;;;;39.35;20.42;;;5.40;99.90;;;;;;4937601;29;20047;-78
2021/03/04 10:50:53;;;;;;;42.63;21.85;;;;;;;;;;4941052;29;20037;-77
2021/03/04 10:53:19;;;;;;;43.85;22.05;;;;;;;;;;4940531;29;20035;-74
2021/03/04 10:55:45;;;;;;;41.30;21.27;;;5.40;99.90;;;;;;4939750;29;20043;-74
2021/03/04 10:58:10;;;;;;;39.08;20.77;;;5.40;99.90;;;;;;4943928;29;20098;-74
2021/03/04 11:00:36;;;;;;;45.25;24.05;;;5.20;99.90;;;;;;4942543;29;20078;-76
2021/03/04 11:03:04;;;;;;;39.55;20.55;;;5.20;99.90;;;;;;4942689;29;20669;-79
2021/03/04 11:05:30;;;;;;;38.08;20.73;;;5.20;99.90;;;;;;4947829;29;20078;-78
2021/03/04 11:07:56;;;;;;;38.45;21.30;;;5.30;99.90;;;;;;4943111;29;20384;-81
2021/03/04 11:10:22;;;;;;;37.47;19.77;;;;;;;;;;4953789;29;20056;-78
2021/03/04 11:12:48;;;;;;;41.83;21.42;;;5.00;99.90;;;;;;4956747;29;20035;-79
2021/03/04 11:15:14;;;;;;;36.88;21.50;;;;;;;;;;4950477;29;20035;-75
2021/03/04 11:17:40;;;;;;;37.53;18.95;;;5.20;99.90;;;;;;4942601;29;20171;-77
2021/03/04 11:20:06;;;;;;;37.15;18.80;;;5.30;99.90;;;;;;4948239;29;20102;-78
2021/03/04 11:22:32;;;;;;;32.35;18.05;;;;;;;;;;4948632;29;20499;-79
2021/03/04 11:24:58;;;;;;;29.50;15.82;;;;;;;;;;4952493;28;20049;-78
2021/03/04 11:27:24;;;;;;;31.42;17.25;;;5.30;99.90;;;;;;4968552;28;20028;-78
2021/03/04 11:29:53;;;;;;;32.55;16.73;;;5.50;99.90;;;;;;4975039;28;20054;-77
2021/03/04 11:32:19;;;;;;;34.83;18.55;;;;;;;;;;4970238;28;20114;-77
2021/03/04 11:34:45;;;;;;;26.65;15.05;;;;;;;;;;4969106;28;20046;-78
2021/03/04 11:37:11;;;;;;;33.78;15.68;;;5.50;99.90;;;;;;4967600;28;20034;-77
2021/03/04 11:39:37;;;;;;;27.70;15.68;;;5.90;99.90;;;;;;4974345;28;20027;-78
2021/03/04 11:42:03;;;;;;;24.73;14.07;;;5.30;99.90;;;;;;4970101;28;20522;-77
2021/03/04 11:44:28;;;;;;;28.13;15.50;;;5.30;99.90;;;;;;4970893;28;20717;-78
2021/03/04 11:46:54;;;;;;;25.02;13.32;;;5.50;99.90;;;;;;4970051;28;20031;-78
2021/03/04 11:49:20;;;;;;;25.05;13.27;;;5.30;99.90;;;;;;4957638;28;20035;-77
2021/03/04 11:51:45;;;;;;;23.30;12.85;;;4.90;99.90;;;;;;4973851;28;20026;-77
2021/03/04 11:54:18;;;;;;;21.42;12.73;;;4.90;99.90;;;;;;4971416;28;20471;-80
2021/03/04 11:56:44;;;;;;;31.90;16.52;;;;;;;;;;4980031;28;20027;-78
2021/03/04 11:59:13;;;;;;;25.88;13.27;;;5.10;99.90;;;;;;4978712;28;20087;-78
2021/03/04 12:01:39;;;;;;;27.00;13.80;;;;;;;;;;4978882;28;20086;-79
2021/03/04 12:04:06;;;;;;;28.40;12.05;;;;;;;;;;4976087;28;20059;-77
2021/03/04 12:06:33;;;;;;;31.55;15.60;;;5.00;99.90;;;;;;4972588;28;20038;-77
2021/03/04 12:08:59;;;;;;;19.92;11.32;;;;;;;;;;4975017;28;20028;-78
2021/03/04 12:11:25;;;;;;;22.13;12.60;;;5.20;99.90;;;;;;4975745;28;20023;-77
2021/03/04 12:13:53;;;;;;;19.67;11.32;;;5.20;99.90;;;;;;4974159;28;20029;-77
2021/03/04 12:16:18;;;;;;;20.92;12.45;;;4.90;99.90;;;;;;4974636;28;20531;-78
2021/03/04 12:18:44;;;;;;;19.02;11.20;;;5.20;99.90;;;;;;4978421;28;20065;-79
2021/03/04 12:21:09;;;;;;;21.17;12.20;;;5.30;99.90;;;;;;4957644;28;20474;-80
2021/03/04 12:23:35;;;;;;;21.88;11.85;;;5.30;99.90;;;;;;4976514;28;20498;-78
2021/03/04 12:26:00;;;;;;;25.52;13.55;;;5.10;99.90;;;;;;4975178;28;20051;-78
2021/03/04 12:28:26;;;;;;;24.50;13.77;;;5.00;99.90;;;;;;4978859;28;20031;-78
2021/03/04 12:30:52;;;;;;;27.80;15.52;;;4.90;99.90;;;;;;4965066;28;20023;-78
2021/03/04 12:33:17;;;;;;;24.08;13.68;;;4.80;99.90;;;;;;4979485;28;20043;-77
2021/03/04 12:35:43;;;;;;;32.58;13.98;;;4.90;99.90;;;;;;4960202;28;20026;-78
2021/03/04 12:38:09;;;;;;;24.10;13.93;;;4.80;99.90;;;;;;4988308;28;20126;-77
2021/03/04 12:40:37;;;;;;;23.92;12.85;;;4.90;99.90;;;;;;4975470;28;20051;-79
2021/03/04 12:43:04;;;;;;;30.73;14.45;;;4.90;99.90;;;;;;4957567;29;20023;-78
2021/03/04 12:45:30;;;;;;;33.72;14.65;;;5.00;99.90;;;;;;4971816;28;20035;-77
2021/03/04 12:47:59;;;;;;;20.55;12.63;;;4.90;99.90;;;;;;4971895;28;20095;-78
2021/03/04 12:50:25;;;;;;;23.30;12.15;;;5.00;99.90;;;;;;4979180;28;20018;-78
2021/03/04 12:52:50;;;;;;;17.70;11.75;;;5.00;99.90;;;;;;4973373;28;20053;-78
2021/03/04 12:55:16;;;;;;;18.42;10.52;;;5.00;99.90;;;;;;4978546;28;20078;-79